createdAt,value
2018-05-14T00:00:30.691Z,99.99
2018-05-14T00:01:30.677Z,99.99
2018-05-14T00:02:30.673Z,99.99
2018-05-14T00:03:30.654Z,99.99
2018-05-14T00:04:30.639Z,99.99
2018-05-14T00:05:30.622Z,99.99
2018-05-14T00:06:30.616Z,99.99
2018-05-14T00:07:30.602Z,99.99
2018-05-14T00:08:30.588Z,99.99
2018-05-14T00:09:30.581Z,99.99
2018-05-14T00:10:30.560Z,99.99
2018-05-14T00:11:30.553Z,99.99
2018-05-14T00:12:30.544Z,99.99
2018-05-14T00:13:30.526Z,99.99
2018-05-14T00:14:30.519Z,99.99
2018-05-14T00:15:30.497Z,99.99
2018-05-14T00:16:30.491Z,99.99
2018-05-14T00:17:30.478Z,99.99
2018-05-14T00:18:30.460Z,99.99
2018-05-14T00:19:30.452Z,99.99
2018-05-14T00:20:30.451Z,99.99
2018-05-14T00:21:30.420Z,99.99
2018-05-14T00:22:30.413Z,99.99
2018-05-14T00:23:30.395Z,99.99
2018-05-14T00:24:30.404Z,99.99
2018-05-14T00:25:30.369Z,99.99
2018-05-14T00:26:30.358Z,99.99
2018-05-14T00:27:30.342Z,99.99
2018-05-14T00:28:30.330Z,99.99
2018-05-14T00:29:30.322Z,99.99
2018-05-14T00:30:30.308Z,99.99
2018-05-14T00:31:30.302Z,99.99
2018-05-14T00:32:30.281Z,99.99
2018-05-14T00:33:30.269Z,99.99
2018-05-14T00:34:30.261Z,99.99
2018-05-14T00:35:30.247Z,99.99
2018-05-14T00:36:30.225Z,99.99
2018-05-14T00:37:30.278Z,99.99
2018-05-14T00:38:30.209Z,99.99
2018-05-14T00:39:30.198Z,99.99
2018-05-14T00:40:30.182Z,99.99
2018-05-14T00:41:30.168Z,99.99
2018-05-14T00:42:30.154Z,99.99
2018-05-14T00:43:30.138Z,99.99
2018-05-14T00:44:30.129Z,99.99
2018-05-14T00:45:30.109Z,99.99
2018-05-14T00:46:30.108Z,99.99
2018-05-14T00:47:30.086Z,99.99
2018-05-14T00:48:30.080Z,99.99
2018-05-14T00:49:30.075Z,99.99
2018-05-14T00:50:30.049Z,99.99
2018-05-14T00:51:30.042Z,99.99
2018-05-14T00:52:30.020Z,99.99
2018-05-14T00:53:30.009Z,99.99
2018-05-14T00:54:29.997Z,99.99
2018-05-14T00:55:29.978Z,99.99
2018-05-14T00:56:29.970Z,99.99
2018-05-14T00:57:29.958Z,99.99
2018-05-14T00:58:29.952Z,99.99
2018-05-14T00:59:29.928Z,99.99
2018-05-14T01:00:29.915Z,99.99
2018-05-14T01:01:29.908Z,99.99
2018-05-14T01:02:29.895Z,99.99
2018-05-14T01:03:29.882Z,99.99
2018-05-14T01:04:29.868Z,99.99
2018-05-14T01:05:29.878Z,99.99
2018-05-14T01:06:29.934Z,99.99
2018-05-14T01:07:29.825Z,99.99
2018-05-14T01:08:29.865Z,99.99
2018-05-14T01:09:29.798Z,99.99
2018-05-14T01:10:29.800Z,99.99
2018-05-14T01:11:29.779Z,99.99
2018-05-14T01:12:29.868Z,99.99
2018-05-14T01:13:29.749Z,99.99
2018-05-14T01:14:29.740Z,99.99
2018-05-14T01:15:29.719Z,99.99
2018-05-14T01:16:29.709Z,99.99
2018-05-14T01:17:29.699Z,99.99
2018-05-14T01:18:29.730Z,99.99
2018-05-14T01:19:29.672Z,99.99
2018-05-14T01:20:29.658Z,99.99
2018-05-14T01:21:29.641Z,99.99
2018-05-14T01:22:29.629Z,99.99
2018-05-14T01:23:29.614Z,99.99
2018-05-14T01:24:29.603Z,99.99
2018-05-14T01:25:29.589Z,99.99
2018-05-14T01:26:29.578Z,99.99
2018-05-14T01:27:29.566Z,99.99
2018-05-14T01:28:29.550Z,99.99
2018-05-14T01:29:29.550Z,99.99
2018-05-14T01:30:29.523Z,99.99
2018-05-14T01:31:29.520Z,99.99
2018-05-14T01:32:29.505Z,99.99
2018-05-14T01:33:29.490Z,99.99
2018-05-14T01:34:29.479Z,99.99
2018-05-14T01:35:29.460Z,99.99
2018-05-14T01:36:29.452Z,99.99
2018-05-14T01:37:29.435Z,99.99
2018-05-14T01:38:29.421Z,99.99
2018-05-14T01:39:29.415Z,99.99
2018-05-14T01:40:29.395Z,99.99
2018-05-14T01:41:29.380Z,99.99
2018-05-14T01:42:29.376Z,99.99
2018-05-14T01:43:29.360Z,99.99
2018-05-14T01:44:29.347Z,99.99
2018-05-14T01:45:29.328Z,99.99
2018-05-14T01:46:29.322Z,99.99
2018-05-14T01:47:29.304Z,99.99
2018-05-14T01:48:29.290Z,99.99
2018-05-14T01:49:29.278Z,99.99
2018-05-14T01:50:29.270Z,99.99
2018-05-14T01:51:29.251Z,99.99
2018-05-14T01:52:29.239Z,99.99
2018-05-14T01:53:29.228Z,99.99
2018-05-14T01:54:29.210Z,99.99
2018-05-14T01:55:29.201Z,99.99
2018-05-14T01:56:29.194Z,99.99
2018-05-14T01:57:29.180Z,99.99
2018-05-14T01:58:29.161Z,99.99
2018-05-14T01:59:29.152Z,99.99
2018-05-14T02:00:29.143Z,99.99
2018-05-14T02:01:29.127Z,99.99
2018-05-14T02:02:29.112Z,99.99
2018-05-14T02:03:29.103Z,99.99
2018-05-14T02:04:29.081Z,99.99
2018-05-14T02:05:29.076Z,99.99
2018-05-14T02:06:29.059Z,99.99
2018-05-14T02:07:29.063Z,99.99
2018-05-14T02:08:29.026Z,99.99
2018-05-14T02:09:29.019Z,99.99
2018-05-14T02:10:29.000Z,99.99
2018-05-14T02:11:28.988Z,99.99
2018-05-14T02:12:28.978Z,99.99
2018-05-14T02:13:28.965Z,99.99
2018-05-14T02:14:28.950Z,99.99
2018-05-14T02:15:28.939Z,99.99
2018-05-14T02:16:28.926Z,99.99
2018-05-14T02:17:28.913Z,99.99
2018-05-14T02:18:28.900Z,99.99
2018-05-14T02:19:28.884Z,99.99
2018-05-14T02:20:28.869Z,99.99
2018-05-14T02:21:28.863Z,99.99
2018-05-14T02:22:28.847Z,99.99
2018-05-14T02:23:28.833Z,99.99
2018-05-14T02:24:28.823Z,99.99
2018-05-14T02:25:28.808Z,99.99
2018-05-14T02:26:28.794Z,99.99
2018-05-14T02:27:28.781Z,99.99
2018-05-14T02:28:28.771Z,99.99
2018-05-14T02:29:28.817Z,99.99
2018-05-14T02:30:28.758Z,99.99
2018-05-14T02:31:28.731Z,99.99
2018-05-14T02:32:28.716Z,99.99
2018-05-14T02:33:28.708Z,99.99
2018-05-14T02:34:28.691Z,99.99
2018-05-14T02:35:28.678Z,99.99
2018-05-14T02:36:28.670Z,99.99
2018-05-14T02:37:28.651Z,99.99
2018-05-14T02:38:28.638Z,99.99
2018-05-14T02:39:28.630Z,99.99
2018-05-14T02:40:28.614Z,99.99
2018-05-14T02:41:28.599Z,99.99
2018-05-14T02:42:28.586Z,99.99
2018-05-14T02:43:28.575Z,99.99
2018-05-14T02:44:28.560Z,99.99
2018-05-14T02:45:28.546Z,99.99
2018-05-14T02:46:28.536Z,99.99
2018-05-14T02:47:28.520Z,99.99
2018-05-14T02:48:28.507Z,99.99
2018-05-14T02:49:28.496Z,99.99
2018-05-14T02:50:28.483Z,99.99
2018-05-14T02:51:28.470Z,99.99
2018-05-14T02:52:28.464Z,99.99
2018-05-14T02:53:28.450Z,99.99
2018-05-14T02:54:28.430Z,99.99
2018-05-14T02:55:28.421Z,99.99
2018-05-14T02:56:28.402Z,99.99
2018-05-14T02:57:28.396Z,99.99
2018-05-14T02:58:28.381Z,99.99
2018-05-14T02:59:28.364Z,99.99
2018-05-14T03:00:28.357Z,99.99
2018-05-14T03:01:28.342Z,99.99
2018-05-14T03:02:28.330Z,99.99
2018-05-14T03:03:28.318Z,99.99
2018-05-14T03:04:28.303Z,99.99
2018-05-14T03:05:28.288Z,99.99
2018-05-14T03:06:28.273Z,99.99
2018-05-14T03:07:28.261Z,99.99
2018-05-14T03:08:28.249Z,99.99
2018-05-14T03:09:28.247Z,99.99
2018-05-14T03:10:28.269Z,99.99
2018-05-14T03:11:28.210Z,99.99
2018-05-14T03:12:28.215Z,99.99
2018-05-14T03:13:28.184Z,99.99
2018-05-14T03:14:28.175Z,99.99
2018-05-14T03:15:28.159Z,99.99
2018-05-14T03:16:28.147Z,99.99
2018-05-14T03:17:28.138Z,99.99
2018-05-14T03:18:28.121Z,99.99
2018-05-14T03:19:28.111Z,99.99
2018-05-14T03:20:28.095Z,99.99
2018-05-14T03:21:28.083Z,99.99
2018-05-14T03:22:28.069Z,99.99
2018-05-14T03:23:28.055Z,99.99
2018-05-14T03:24:28.048Z,99.99
2018-05-14T03:25:28.032Z,99.99
2018-05-14T03:26:28.020Z,99.99
2018-05-14T03:27:28.007Z,99.99
2018-05-14T03:28:28.105Z,99.99
2018-05-14T03:29:27.980Z,99.99
2018-05-14T03:30:28.104Z,99.99
2018-05-14T03:31:27.953Z,99.99
2018-05-14T03:32:27.944Z,99.99
2018-05-14T03:33:27.928Z,99.99
2018-05-14T03:34:27.917Z,99.99
2018-05-14T03:35:27.899Z,99.99
2018-05-14T03:36:27.890Z,99.99
2018-05-14T03:37:27.877Z,99.99
2018-05-14T03:38:28.059Z,99.99
2018-05-14T03:39:27.849Z,99.99
2018-05-14T03:40:27.888Z,99.99
2018-05-14T03:41:27.828Z,99.99
2018-05-14T03:42:27.865Z,99.99
2018-05-14T03:43:27.798Z,99.99
2018-05-14T03:44:27.889Z,99.99
2018-05-14T03:45:27.767Z,99.99
2018-05-14T03:46:27.758Z,99.99
2018-05-14T03:47:27.749Z,99.99
2018-05-14T03:48:27.730Z,99.99
2018-05-14T03:49:27.718Z,99.99
2018-05-14T03:50:27.704Z,99.99
2018-05-14T03:51:27.688Z,99.99
2018-05-14T03:52:27.681Z,99.99
2018-05-14T03:53:27.668Z,99.99
2018-05-14T03:54:27.657Z,99.99
2018-05-14T03:55:27.638Z,99.99
2018-05-14T03:56:27.627Z,99.99
2018-05-14T03:57:27.618Z,99.99
2018-05-14T03:58:27.611Z,99.99
2018-05-14T03:59:27.586Z,99.99
2018-05-14T04:00:27.571Z,99.99
2018-05-14T04:01:27.559Z,99.99
2018-05-14T04:02:27.568Z,99.99
2018-05-14T04:03:27.534Z,99.99
2018-05-14T04:04:27.522Z,99.99
2018-05-14T04:05:27.509Z,99.99
2018-05-14T04:06:27.497Z,99.99
2018-05-14T04:07:27.492Z,99.99
2018-05-14T04:08:27.565Z,99.99
2018-05-14T04:09:27.458Z,99.99
2018-05-14T04:10:27.449Z,99.99
2018-05-14T04:11:27.428Z,99.99
2018-05-14T04:12:27.419Z,99.99
2018-05-14T04:13:27.407Z,99.99
2018-05-14T04:14:27.397Z,99.99
2018-05-14T04:15:27.382Z,99.99
2018-05-14T04:16:27.457Z,99.99
2018-05-14T04:17:27.356Z,99.99
2018-05-14T04:18:27.339Z,99.99
2018-05-14T04:19:27.327Z,99.99
2018-05-14T04:20:27.318Z,99.99
2018-05-14T04:21:27.299Z,99.99
2018-05-14T04:22:27.289Z,99.99
2018-05-14T04:23:27.271Z,99.99
2018-05-14T04:24:27.337Z,99.99
2018-05-14T04:25:27.248Z,99.99
2018-05-14T04:26:27.242Z,99.99
2018-05-14T04:27:27.219Z,99.99
2018-05-14T04:28:27.208Z,99.99
2018-05-14T04:29:27.199Z,99.99
2018-05-14T04:30:27.189Z,99.99
2018-05-14T04:31:27.170Z,99.99
2018-05-14T04:32:27.159Z,99.99
2018-05-14T04:33:27.152Z,99.99
2018-05-14T04:34:27.129Z,99.99
2018-05-14T04:35:27.119Z,99.99
2018-05-14T04:36:27.112Z,99.99
2018-05-14T04:37:27.104Z,99.99
2018-05-14T04:38:27.090Z,99.99
2018-05-14T04:39:27.069Z,99.99
2018-05-14T04:40:27.054Z,99.99
2018-05-14T04:41:27.039Z,99.99
2018-05-14T04:42:27.033Z,99.99
2018-05-14T04:43:27.013Z,99.99
2018-05-14T04:44:27.008Z,99.99
2018-05-14T04:45:26.988Z,99.99
2018-05-14T04:46:26.976Z,99.99
2018-05-14T04:47:26.972Z,99.99
2018-05-14T04:48:26.952Z,99.99
2018-05-14T04:49:26.948Z,99.99
2018-05-14T04:50:26.930Z,99.99
2018-05-14T04:51:26.924Z,99.99
2018-05-14T04:52:26.899Z,99.99
2018-05-14T04:53:26.891Z,99.99
2018-05-14T04:54:26.872Z,99.99
2018-05-14T04:55:26.912Z,99.99
2018-05-14T04:56:26.904Z,99.99
2018-05-14T04:57:26.986Z,99.99
2018-05-14T04:58:26.820Z,99.99
2018-05-14T04:59:26.811Z,99.99
2018-05-14T05:00:26.802Z,99.99
2018-05-14T05:01:26.780Z,99.99
2018-05-14T05:02:26.771Z,99.99
2018-05-14T05:03:26.760Z,99.99
2018-05-14T05:04:26.743Z,99.99
2018-05-14T05:05:26.781Z,99.99
2018-05-14T05:06:26.718Z,99.99
2018-05-14T05:07:26.758Z,99.99
2018-05-14T05:08:26.691Z,99.99
2018-05-14T05:09:26.681Z,99.99
2018-05-14T05:10:26.693Z,99.99
2018-05-14T05:11:26.788Z,99.99
2018-05-14T05:12:26.637Z,99.99
2018-05-14T05:13:26.633Z,99.99
2018-05-14T05:14:26.610Z,99.99
2018-05-14T05:15:26.600Z,99.99
2018-05-14T05:16:26.587Z,99.99
2018-05-14T05:17:26.570Z,99.99
2018-05-14T05:18:26.571Z,99.99
2018-05-14T05:19:26.551Z,99.99
2018-05-14T05:20:26.536Z,99.99
2018-05-14T05:21:26.530Z,99.99
2018-05-14T05:22:26.514Z,99.99
2018-05-14T05:23:26.494Z,99.99
2018-05-14T05:24:26.490Z,99.99
2018-05-14T05:25:26.473Z,99.99
2018-05-14T05:26:26.458Z,99.99
2018-05-14T05:27:26.451Z,99.99
2018-05-14T05:28:26.475Z,99.99
2018-05-14T05:29:26.421Z,99.99
2018-05-14T05:30:26.485Z,99.99
2018-05-14T05:31:26.393Z,99.99
2018-05-14T05:32:26.388Z,99.99
2018-05-14T05:33:26.371Z,99.99
2018-05-14T05:34:26.363Z,99.99
2018-05-14T05:35:26.345Z,99.99
2018-05-14T05:36:26.332Z,99.99
2018-05-14T05:37:26.321Z,99.99
2018-05-14T05:38:26.308Z,99.99
2018-05-14T05:39:26.297Z,99.99
2018-05-14T05:40:26.289Z,99.99
2018-05-14T05:41:26.272Z,99.99
2018-05-14T05:42:26.259Z,99.99
2018-05-14T05:43:26.245Z,99.99
2018-05-14T05:44:26.240Z,99.99
2018-05-14T05:45:26.226Z,99.99
2018-05-14T05:46:26.215Z,99.99
2018-05-14T05:47:26.198Z,99.99
2018-05-14T05:48:26.182Z,99.99
2018-05-14T05:49:26.168Z,99.99
2018-05-14T05:50:26.160Z,99.99
2018-05-14T05:51:26.142Z,99.99
2018-05-14T05:52:26.142Z,99.99
2018-05-14T05:53:26.125Z,99.99
2018-05-14T05:54:26.108Z,99.99
2018-05-14T05:55:26.093Z,99.99
2018-05-14T05:56:26.084Z,99.99
2018-05-14T05:57:26.094Z,99.99
2018-05-14T05:58:26.057Z,99.99
2018-05-14T05:59:26.043Z,99.99
2018-05-14T06:00:26.039Z,99.99
2018-05-14T06:01:26.023Z,99.99
2018-05-14T06:02:26.009Z,99.99
2018-05-14T06:03:25.995Z,99.99
2018-05-14T06:04:25.981Z,99.99
2018-05-14T06:05:25.975Z,99.99
2018-05-14T06:06:25.958Z,99.99
2018-05-14T06:07:25.953Z,99.99
2018-05-14T06:08:25.945Z,99.99
2018-05-14T06:09:25.952Z,99.99
2018-05-14T06:10:25.913Z,99.99
2018-05-14T06:11:25.897Z,99.99
2018-05-14T06:12:25.890Z,99.99
2018-05-14T06:13:25.879Z,99.99
2018-05-14T06:14:25.863Z,99.99
2018-05-14T06:15:25.864Z,99.99
2018-05-14T06:16:25.840Z,99.99
2018-05-14T06:17:25.830Z,99.99
2018-05-14T06:18:25.820Z,99.99
2018-05-14T06:19:25.814Z,99.99
2018-05-14T06:20:25.798Z,99.99
2018-05-14T06:21:25.780Z,99.99
2018-05-14T06:22:25.823Z,99.99
2018-05-14T06:23:25.768Z,99.99
2018-05-14T06:24:25.744Z,99.99
2018-05-14T06:25:25.742Z,99.99
2018-05-14T06:26:25.721Z,99.99
2018-05-14T06:27:25.711Z,99.99
2018-05-14T06:28:25.696Z,99.99
2018-05-14T06:29:25.699Z,99.99
2018-05-14T06:30:25.677Z,99.99
2018-05-14T06:31:25.674Z,99.99
2018-05-14T06:32:25.651Z,99.99
2018-05-14T06:33:25.644Z,99.99
2018-05-14T06:34:25.643Z,99.99
2018-05-14T06:35:25.703Z,99.99
2018-05-14T06:36:25.607Z,99.99
2018-05-14T06:37:25.593Z,99.99
2018-05-14T06:38:25.589Z,99.99
2018-05-14T06:39:25.571Z,99.99
2018-05-14T06:40:25.563Z,99.99
2018-05-14T06:41:25.549Z,99.99
2018-05-14T06:42:25.543Z,99.99
2018-05-14T06:43:25.531Z,99.99
2018-05-14T06:44:25.659Z,99.99
2018-05-14T06:45:25.510Z,99.99
2018-05-14T06:46:25.492Z,99.99
2018-05-14T06:47:25.481Z,99.99
2018-05-14T06:48:25.464Z,99.99
2018-05-14T06:49:25.455Z,99.99
2018-05-14T06:50:25.450Z,99.99
2018-05-14T06:51:25.433Z,99.99
2018-05-14T06:52:25.429Z,99.99
2018-05-14T06:53:25.419Z,99.99
2018-05-14T06:54:25.452Z,99.99
2018-05-14T06:55:25.432Z,99.99
2018-05-14T06:56:25.381Z,99.99
2018-05-14T06:57:25.382Z,99.99
2018-05-14T06:58:25.361Z,99.99
2018-05-14T06:59:25.349Z,99.99
2018-05-14T07:00:25.443Z,99.99
2018-05-14T07:07:30.109Z,99.99
2018-05-14T07:08:30.100Z,99.99
2018-05-14T07:09:30.093Z,99.99
2018-05-14T07:10:30.077Z,99.99
2018-05-14T07:11:30.113Z,99.99
2018-05-14T07:12:30.054Z,99.99
2018-05-14T07:13:30.046Z,99.99
2018-05-14T07:14:30.038Z,99.99
2018-05-14T07:15:30.024Z,99.99
2018-05-14T07:16:30.012Z,99.99
2018-05-14T07:17:30.011Z,99.99
2018-05-14T07:18:29.996Z,99.99
2018-05-14T07:19:29.983Z,99.99
2018-05-14T07:20:29.974Z,99.99
2018-05-14T07:21:29.965Z,99.99
2018-05-14T07:22:30.059Z,99.99
2018-05-14T07:23:29.941Z,99.99
2018-05-14T07:24:29.936Z,99.99
2018-05-14T07:25:29.919Z,99.99
2018-05-14T07:26:29.913Z,99.99
2018-05-14T07:27:29.907Z,99.99
2018-05-14T07:28:29.898Z,99.99
2018-05-14T07:29:29.877Z,99.99
2018-05-14T07:30:29.868Z,99.99
2018-05-14T07:31:29.861Z,99.99
2018-05-14T07:32:29.850Z,99.99
2018-05-14T07:33:29.834Z,99.99
2018-05-14T07:34:29.884Z,99.99
2018-05-14T07:35:29.829Z,99.99
2018-05-14T07:36:29.813Z,99.99
2018-05-14T07:37:29.804Z,99.99
2018-05-14T07:38:29.843Z,99.99
2018-05-14T07:39:29.783Z,99.99
2018-05-14T07:40:29.877Z,99.99
2018-05-14T07:41:29.759Z,99.88
2018-05-14T07:42:29.748Z,99.99
2018-05-14T07:43:29.739Z,99.99
2018-05-14T07:44:29.785Z,99.55
2018-05-14T07:45:29.723Z,98.77
2018-05-14T07:46:29.713Z,98.77
2018-05-14T07:47:29.700Z,98.00
2018-05-14T07:48:29.691Z,98.63
2018-05-14T07:49:29.684Z,98.34
2018-05-14T07:50:29.669Z,98.25
2018-05-14T07:51:29.670Z,98.54
2018-05-14T07:52:29.652Z,97.09
2018-05-14T07:53:29.649Z,94.48
2018-05-14T07:54:29.644Z,96.41
2018-05-14T07:55:29.630Z,94.82
2018-05-14T07:56:29.621Z,94.82
2018-05-14T07:57:29.610Z,95.50
2018-05-14T07:58:29.602Z,95.79
2018-05-14T07:59:29.588Z,95.45
2018-05-14T08:00:29.579Z,94.38
2018-05-14T08:01:29.578Z,95.68
2018-05-14T08:02:29.567Z,94.43
2018-05-14T08:03:29.560Z,93.90
2018-05-14T08:04:29.550Z,91.58
2018-05-14T08:05:29.551Z,92.16
2018-05-14T08:06:29.541Z,92.83
2018-05-14T08:07:29.528Z,91.82
2018-05-14T08:08:29.531Z,89.64
2018-05-14T08:09:29.527Z,88.09
2018-05-14T08:10:29.525Z,88.39
2018-05-14T08:11:29.518Z,86.99
2018-05-14T08:12:29.508Z,87.61
2018-05-14T08:13:29.508Z,88.87
2018-05-14T08:14:29.502Z,87.81
2018-05-14T08:15:29.608Z,86.20
2018-05-14T08:16:29.493Z,85.72
2018-05-14T08:17:29.582Z,82.62
2018-05-14T08:18:29.495Z,85.14
2018-05-14T08:19:29.483Z,81.40
2018-05-14T08:20:29.483Z,83.63
2018-05-14T08:21:29.529Z,78.25
2018-05-14T08:22:29.484Z,81.64
2018-05-14T08:23:29.661Z,78.48
2018-05-14T08:24:29.483Z,76.87
2018-05-14T08:25:29.473Z,75.36
2018-05-14T08:26:29.482Z,68.60
2018-05-14T08:27:29.477Z,67.34
2018-05-14T08:28:29.483Z,67.18
2018-05-14T08:29:29.480Z,66.24
2018-05-14T08:30:29.483Z,65.01
2018-05-14T08:31:29.517Z,63.94
2018-05-14T08:32:29.484Z,60.31
2018-05-14T08:33:29.483Z,61.60
2018-05-14T08:34:29.493Z,61.31
2018-05-14T08:35:29.486Z,59.69
2018-05-14T08:36:29.486Z,57.25
2018-05-14T08:37:29.492Z,58.67
2018-05-14T08:38:29.602Z,57.40
2018-05-14T08:39:29.509Z,57.99
2018-05-14T08:40:29.504Z,55.02
2018-05-14T08:41:29.504Z,52.97
2018-05-14T08:42:29.646Z,54.93
2018-05-14T08:43:29.509Z,53.27
2018-05-14T08:44:29.541Z,52.80
2018-05-14T08:45:29.519Z,50.59
2018-05-14T08:46:29.519Z,49.51
2018-05-14T08:47:29.519Z,49.80
2018-05-14T08:48:29.537Z,49.43
2018-05-14T08:49:29.535Z,48.19
2018-05-14T08:50:29.535Z,50.34
2018-05-14T08:51:29.542Z,50.63
2018-05-14T08:52:29.551Z,48.68
2018-05-14T08:53:29.551Z,48.38
2018-05-14T08:54:29.667Z,48.09
2018-05-14T08:55:29.558Z,48.87
2018-05-14T08:56:29.560Z,49.07
2018-05-14T08:57:29.572Z,48.90
2018-05-14T08:58:29.575Z,48.63
2018-05-14T08:59:29.584Z,48.82
2018-05-14T09:00:29.583Z,47.87
2018-05-14T09:01:29.598Z,46.86
2018-05-14T09:02:29.594Z,48.46
2018-05-14T09:03:29.598Z,48.94
2018-05-14T09:04:29.598Z,46.72
2018-05-14T09:05:29.608Z,47.40
2018-05-14T09:06:29.607Z,47.03
2018-05-14T09:07:29.618Z,46.54
2018-05-14T09:08:29.624Z,45.56
2018-05-14T09:09:29.650Z,45.27
2018-05-14T09:10:29.633Z,43.51
2018-05-14T09:11:29.630Z,42.60
2018-05-14T09:12:29.635Z,42.80
2018-05-14T09:13:29.639Z,44.27
2018-05-14T09:14:29.640Z,44.19
2018-05-14T09:15:29.644Z,43.31
2018-05-14T09:16:29.647Z,44.02
2018-05-14T09:17:29.650Z,43.33
2018-05-14T09:18:29.660Z,43.92
2018-05-14T09:19:29.701Z,41.25
2018-05-14T09:20:29.672Z,41.45
2018-05-14T09:21:29.675Z,43.21
2018-05-14T09:22:29.672Z,43.62
2018-05-14T09:23:29.673Z,42.76
2018-05-14T09:24:29.772Z,41.68
2018-05-14T09:25:29.758Z,42.49
2018-05-14T09:26:29.734Z,41.39
2018-05-14T09:27:29.681Z,41.88
2018-05-14T09:28:29.680Z,42.18
2018-05-14T09:29:29.681Z,42.66
2018-05-14T09:30:29.685Z,41.00
2018-05-14T09:31:29.694Z,42.57
2018-05-14T09:32:29.691Z,42.58
2018-05-14T09:33:29.698Z,41.72
2018-05-14T09:34:29.694Z,41.72
2018-05-14T09:35:29.690Z,42.61
2018-05-14T09:36:29.697Z,41.35
2018-05-14T09:37:29.698Z,41.45
2018-05-14T09:38:29.697Z,42.14
2018-05-14T09:39:29.697Z,40.48
2018-05-14T09:40:29.697Z,39.80
2018-05-14T09:41:29.707Z,39.40
2018-05-14T09:42:29.704Z,39.88
2018-05-14T09:43:29.707Z,39.58
2018-05-14T09:44:29.751Z,39.78
2018-05-14T09:45:29.703Z,39.48
2018-05-14T09:46:29.710Z,40.25
2018-05-14T09:47:29.700Z,40.66
2018-05-14T09:48:29.708Z,39.88
2018-05-14T09:49:29.755Z,38.31
2018-05-14T09:50:29.796Z,38.11
2018-05-14T09:51:29.703Z,38.50
2018-05-14T09:52:29.701Z,40.58
2018-05-14T09:53:29.713Z,39.58
2018-05-14T09:54:29.707Z,40.96
2018-05-14T09:55:29.697Z,40.19
2018-05-14T09:56:29.700Z,38.50
2018-05-14T09:57:29.700Z,37.93
2018-05-14T09:58:29.700Z,38.42
2018-05-14T09:59:29.704Z,37.70
2018-05-14T10:00:29.697Z,37.13
2018-05-14T10:01:29.694Z,38.09
2018-05-14T10:02:29.692Z,38.88
2018-05-14T10:03:29.781Z,39.00
2018-05-14T10:04:29.688Z,37.92
2018-05-14T10:05:29.688Z,37.92
2018-05-14T10:06:29.691Z,38.01
2018-05-14T10:07:29.682Z,38.29
2018-05-14T10:08:29.691Z,38.39
2018-05-14T10:09:29.685Z,37.88
2018-05-14T10:10:41.426Z,38.66
2018-05-14T10:11:29.681Z,38.23
2018-05-14T10:12:29.684Z,39.53
2018-05-14T10:13:29.680Z,40.80
2018-05-14T10:14:29.662Z,38.54
2018-05-14T10:15:29.664Z,39.53
2018-05-14T10:16:29.663Z,38.64
2018-05-14T10:17:29.663Z,41.19
2018-05-14T10:18:29.659Z,40.80
2018-05-14T10:19:29.659Z,40.70
2018-05-14T10:20:29.650Z,39.03
2018-05-14T10:21:29.653Z,40.39
2018-05-14T10:22:29.647Z,40.70
2018-05-14T10:23:29.642Z,42.18
2018-05-14T10:24:29.640Z,42.18
2018-05-14T10:25:29.639Z,41.17
2018-05-14T10:26:29.628Z,40.98
2018-05-14T10:27:29.638Z,41.45
2018-05-14T10:28:29.628Z,41.05
2018-05-14T10:29:29.628Z,40.35
2018-05-14T10:30:29.617Z,41.19
2018-05-14T10:31:29.612Z,42.15
2018-05-14T10:32:29.612Z,44.79
2018-05-14T10:33:29.605Z,44.69
2018-05-14T10:34:29.610Z,46.26
2018-05-14T10:35:29.601Z,45.16
2018-05-14T10:36:29.592Z,44.73
2018-05-14T10:37:29.601Z,47.14
2018-05-14T10:38:29.591Z,47.27
2018-05-14T10:39:29.591Z,46.31
2018-05-14T10:40:29.583Z,44.55
2018-05-14T10:41:29.576Z,46.31
2018-05-14T10:42:29.576Z,44.96
2018-05-14T10:43:29.576Z,44.96
2018-05-14T10:44:29.574Z,45.65
2018-05-14T10:45:29.557Z,44.67
2018-05-14T10:46:29.558Z,44.06
2018-05-14T10:47:29.558Z,45.14
2018-05-14T10:48:29.551Z,46.41
2018-05-14T10:49:29.550Z,45.04
2018-05-14T10:50:29.541Z,45.55
2018-05-14T10:51:29.541Z,44.67
2018-05-14T10:52:29.543Z,44.28
2018-05-14T10:53:29.532Z,44.45
2018-05-14T10:54:29.532Z,44.74
2018-05-14T10:55:29.526Z,43.67
2018-05-14T10:56:29.523Z,43.18
2018-05-14T10:57:29.520Z,44.24
2018-05-14T10:58:29.512Z,44.84
2018-05-14T10:59:29.514Z,43.55
2018-05-14T11:00:29.504Z,44.55
2018-05-14T11:01:29.500Z,45.72
2018-05-14T11:02:29.494Z,46.11
2018-05-14T11:03:29.485Z,45.23
2018-05-14T11:04:29.490Z,44.74
2018-05-14T11:05:29.478Z,45.43
2018-05-14T11:06:29.478Z,44.80
2018-05-14T11:07:29.480Z,45.09
2018-05-14T11:08:29.467Z,44.29
2018-05-14T11:09:29.469Z,46.53
2018-05-14T11:10:29.499Z,46.14
2018-05-14T11:11:29.458Z,46.34
2018-05-14T11:12:29.458Z,46.36
2018-05-14T11:13:29.452Z,45.97
2018-05-14T11:14:29.450Z,44.70
2018-05-14T11:15:29.440Z,44.53
2018-05-14T11:16:29.429Z,43.65
2018-05-14T11:17:29.440Z,45.23
2018-05-14T11:18:29.430Z,43.46
2018-05-14T11:19:29.423Z,43.26
2018-05-14T11:20:29.420Z,43.07
2018-05-14T11:21:29.418Z,44.34
2018-05-14T11:22:29.415Z,45.53
2018-05-14T11:23:29.414Z,42.52
2018-05-14T11:24:29.412Z,41.03
2018-05-14T11:25:29.398Z,42.09
2018-05-14T11:26:29.396Z,43.57
2018-05-14T11:27:29.399Z,43.08
2018-05-14T11:28:29.400Z,41.13
2018-05-14T11:29:29.383Z,41.13
2018-05-14T11:30:29.386Z,40.35
2018-05-14T11:31:29.393Z,40.45
2018-05-14T11:32:29.373Z,40.06
2018-05-14T11:33:29.372Z,41.89
2018-05-14T11:34:29.370Z,41.21
2018-05-14T11:35:29.477Z,42.77
2018-05-14T11:36:29.360Z,42.11
2018-05-14T11:37:29.355Z,41.82
2018-05-14T11:38:29.355Z,42.97
2018-05-14T11:39:29.341Z,42.21
2018-05-14T11:40:29.338Z,42.40
2018-05-14T11:41:29.334Z,41.23
2018-05-14T11:42:29.328Z,40.80
2018-05-14T11:43:29.328Z,41.38
2018-05-14T11:44:29.318Z,42.94
2018-05-14T11:45:29.318Z,40.09
2018-05-14T11:46:29.318Z,40.78
2018-05-14T11:47:29.308Z,41.46
2018-05-14T11:48:29.309Z,41.77
2018-05-14T11:49:29.295Z,40.41
2018-05-14T11:50:29.295Z,40.01
2018-05-14T11:51:29.293Z,40.60
2018-05-14T11:52:29.282Z,40.00
2018-05-14T11:53:29.280Z,41.17
2018-05-14T11:54:29.283Z,41.17
2018-05-14T11:55:29.284Z,41.85
2018-05-14T11:56:29.276Z,43.33
2018-05-14T11:57:29.277Z,40.41
2018-05-14T11:58:29.259Z,42.29
2018-05-14T11:59:29.263Z,40.82
2018-05-14T12:00:29.256Z,39.18
2018-05-14T12:01:29.303Z,40.64
2018-05-14T12:02:29.251Z,38.89
2018-05-14T12:03:29.360Z,40.23
2018-05-14T12:04:29.229Z,39.84
2018-05-14T12:05:29.332Z,40.14
2018-05-14T12:06:29.246Z,40.82
2018-05-14T12:07:29.272Z,39.92
2018-05-14T12:08:29.224Z,41.67
2018-05-14T12:09:29.273Z,40.88
2018-05-14T12:10:29.210Z,40.41
2018-05-14T12:11:29.216Z,40.50
2018-05-14T12:12:29.210Z,40.99
2018-05-14T12:13:29.201Z,39.23
2018-05-14T12:14:29.197Z,40.21
2018-05-14T12:15:29.195Z,40.41
2018-05-14T12:16:29.183Z,37.96
2018-05-14T12:17:29.177Z,39.14
2018-05-14T12:18:29.182Z,39.72
2018-05-14T12:19:29.168Z,40.29
2018-05-14T12:20:29.170Z,40.39
2018-05-14T12:21:29.171Z,39.62
2018-05-14T12:22:29.161Z,40.92
2018-05-14T12:23:29.162Z,40.82
2018-05-14T12:24:29.153Z,38.87
2018-05-14T12:25:29.149Z,38.10
2018-05-14T12:26:29.145Z,38.02
2018-05-14T12:27:29.140Z,38.49
2018-05-14T12:28:29.135Z,39.88
2018-05-14T12:29:29.133Z,37.50
2018-05-14T12:30:29.133Z,36.91
2018-05-14T12:31:29.122Z,37.48
2018-05-14T12:32:29.116Z,39.55
2018-05-14T12:33:29.115Z,40.82
2018-05-14T12:34:29.212Z,39.36
2018-05-14T12:35:29.107Z,38.51
2018-05-14T12:36:29.200Z,39.12
2018-05-14T12:37:29.185Z,39.22
2018-05-14T12:38:29.201Z,41.87
2018-05-14T12:39:29.092Z,41.41
2018-05-14T12:40:29.093Z,39.57
2018-05-14T12:41:29.082Z,39.08
2018-05-14T12:42:29.082Z,38.59
2018-05-14T12:43:29.076Z,37.01
2018-05-14T12:44:29.072Z,38.48
2018-05-14T12:45:29.080Z,36.80
2018-05-14T12:46:29.071Z,37.48
2018-05-14T12:47:29.063Z,36.88
2018-05-14T12:48:29.047Z,39.72
2018-05-14T12:49:29.057Z,39.06
2018-05-14T12:50:29.047Z,38.57
2018-05-14T12:51:29.044Z,37.99
2018-05-14T12:52:29.038Z,37.32
2018-05-14T12:53:29.124Z,38.59
2018-05-14T12:54:29.032Z,38.12
2018-05-14T12:55:29.026Z,38.12
2018-05-14T12:56:29.019Z,36.44
2018-05-14T12:57:29.022Z,37.71
2018-05-14T12:58:29.016Z,38.10